createdAt,value
2023-03-11T00:00:24.488Z,1.60
2023-03-11T00:02:54.511Z,1.57
2023-03-11T00:05:25.012Z,1.50
2023-03-11T00:07:53.585Z,1.70
2023-03-11T00:10:24.221Z,1.80
2023-03-11T00:12:53.816Z,1.83
2023-03-11T00:15:22.354Z,1.50
2023-03-11T00:17:51.654Z,1.70
2023-03-11T00:20:22.137Z,1.42
2023-03-11T00:22:51.307Z,1.50
2023-03-11T00:25:21.694Z,1.70
2023-03-11T00:27:49.836Z,1.60
2023-03-11T00:30:20.382Z,1.98
2023-03-11T00:32:49.494Z,1.73
2023-03-11T00:35:20.377Z,1.40
2023-03-11T00:37:49.816Z,1.55
2023-03-11T00:40:20.502Z,1.58
2023-03-11T00:42:48.867Z,1.52
2023-03-11T00:45:18.914Z,1.67
2023-03-11T00:47:47.401Z,1.42
2023-03-11T00:50:19.028Z,1.50
2023-03-11T00:52:47.452Z,1.80
2023-03-11T00:55:18.137Z,1.80
2023-03-11T00:57:46.668Z,1.85
2023-03-11T01:00:16.817Z,1.90
2023-03-11T01:02:46.666Z,1.40
2023-03-11T01:05:15.609Z,1.60
2023-03-11T01:07:43.715Z,1.45
2023-03-11T01:10:13.149Z,1.60
2023-03-11T01:12:41.359Z,1.90
2023-03-11T01:15:16.169Z,1.50
2023-03-11T01:17:45.759Z,1.25
2023-03-11T01:20:14.672Z,1.75
2023-03-11T01:22:43.007Z,1.52
2023-03-11T01:25:14.516Z,1.83
2023-03-11T01:27:42.917Z,1.52
2023-03-11T01:30:14.206Z,1.50
2023-03-11T01:32:42.486Z,1.60
2023-03-11T01:35:14.203Z,1.50
2023-03-11T01:37:42.504Z,1.77
2023-03-11T01:40:16.202Z,1.48
2023-03-11T01:42:44.335Z,1.60
2023-03-11T01:45:43.796Z,1.58
2023-03-11T01:48:12.349Z,1.90
2023-03-11T01:50:46.073Z,1.58
2023-03-11T01:53:16.331Z,1.70
2023-03-11T01:55:45.360Z,1.20
2023-03-11T01:58:17.829Z,1.23
2023-03-11T02:00:46.995Z,1.70
2023-03-11T02:03:19.598Z,1.50
2023-03-11T02:05:51.194Z,1.55
2023-03-11T02:08:19.315Z,1.60
2023-03-11T02:10:49.563Z,1.70
2023-03-11T02:13:18.061Z,1.50
2023-03-11T02:15:46.588Z,1.40
2023-03-11T02:18:15.984Z,1.38
2023-03-11T02:20:52.107Z,1.70
2023-03-11T02:23:25.042Z,1.63
2023-03-11T02:25:59.246Z,1.70
2023-03-11T02:28:31.518Z,1.38
2023-03-11T02:30:59.896Z,1.40
2023-03-11T02:33:32.236Z,1.55
2023-03-11T02:36:00.572Z,1.48
2023-03-11T02:38:29.198Z,1.10
2023-03-11T02:40:58.892Z,1.60
2023-03-11T02:43:36.864Z,1.60
2023-03-11T02:46:07.626Z,1.40
2023-03-11T02:48:36.564Z,1.10
2023-03-11T02:51:05.207Z,1.40
2023-03-11T02:53:38.535Z,1.40
2023-03-11T02:56:07.057Z,1.20
2023-03-11T02:58:36.581Z,1.70
2023-03-11T03:01:04.995Z,1.23
2023-03-11T03:03:33.199Z,1.50
2023-03-11T03:06:01.312Z,1.45
2023-03-11T03:08:29.436Z,1.52
2023-03-11T03:10:57.599Z,1.65
2023-03-11T03:13:25.691Z,1.30
2023-03-11T03:15:55.152Z,1.67
2023-03-11T03:18:23.312Z,1.65
2023-03-11T03:20:52.426Z,1.33
2023-03-11T03:23:21.240Z,1.60
2023-03-11T03:25:49.387Z,1.40
2023-03-11T03:28:17.580Z,1.40
2023-03-11T03:30:45.717Z,1.23
2023-03-11T03:33:15.240Z,1.48
2023-03-11T03:35:44.973Z,1.30
2023-03-11T03:38:13.810Z,1.42
2023-03-11T03:40:47.019Z,1.30
2023-03-11T03:43:15.240Z,1.30
2023-03-11T03:45:43.437Z,1.40
2023-03-11T03:48:11.668Z,1.35
2023-03-11T03:50:42.349Z,1.40
2023-03-11T03:53:10.506Z,1.13
2023-03-11T03:55:38.667Z,1.40
2023-03-11T03:58:06.777Z,1.23
2023-03-11T04:00:35.700Z,1.30
2023-03-11T04:03:03.957Z,1.25
2023-03-11T04:05:32.083Z,1.10
2023-03-11T04:08:01.799Z,1.35
2023-03-11T04:10:30.002Z,1.38
2023-03-11T04:12:58.120Z,1.20
2023-03-11T04:15:26.314Z,1.30
2023-03-11T04:17:54.540Z,1.30
2023-03-11T04:20:22.726Z,1.40
2023-03-11T04:22:50.965Z,1.33
2023-03-11T04:25:20.457Z,1.30
2023-03-11T04:27:50.099Z,1.20
2023-03-11T04:30:18.544Z,1.20
2023-03-11T04:32:46.829Z,1.27
2023-03-11T04:35:15.057Z,1.15
2023-03-11T04:37:43.190Z,1.10
2023-03-11T04:40:12.653Z,1.10
2023-03-11T04:42:42.258Z,1.38
2023-03-11T04:45:12.103Z,1.40
2023-03-11T04:47:40.349Z,1.25
2023-03-11T04:50:09.022Z,1.30
2023-03-11T04:52:37.134Z,1.30
2023-03-11T04:55:05.961Z,1.08
2023-03-11T04:57:34.488Z,1.25
2023-03-11T05:00:06.213Z,1.02
2023-03-11T05:02:34.381Z,1.00
2023-03-11T05:05:02.560Z,1.33
2023-03-11T05:07:30.776Z,1.35
2023-03-11T05:09:58.898Z,1.40
2023-03-11T05:12:27.100Z,1.10
2023-03-11T05:14:55.168Z,1.02
2023-03-11T05:17:25.084Z,1.13
2023-03-11T05:19:53.742Z,1.40
2023-03-11T05:22:22.960Z,1.20
2023-03-11T05:24:51.243Z,1.10
2023-03-11T05:27:19.952Z,0.90
2023-03-11T05:29:48.322Z,1.05
2023-03-11T05:32:16.769Z,1.40
2023-03-11T05:34:46.533Z,1.17
2023-03-11T05:37:15.045Z,0.88
2023-03-11T05:39:43.222Z,1.00
2023-03-11T05:42:11.980Z,1.17
2023-03-11T05:44:41.462Z,1.08
2023-03-11T05:47:09.617Z,1.13
2023-03-11T05:49:37.716Z,1.10
2023-03-11T05:52:07.358Z,0.90
2023-03-11T05:54:35.476Z,1.00
2023-03-11T05:57:03.661Z,1.10
2023-03-11T05:59:32.484Z,1.10
2023-03-11T06:02:00.688Z,0.90
2023-03-11T06:04:29.206Z,0.90
2023-03-11T06:06:57.459Z,1.10
2023-03-11T06:09:27.200Z,0.90
2023-03-11T06:11:55.390Z,0.98
2023-03-11T06:14:23.633Z,1.10
2023-03-11T06:16:51.779Z,0.90
2023-03-11T06:19:20.471Z,0.90
2023-03-11T06:21:48.651Z,1.10
2023-03-11T06:24:16.799Z,1.25
2023-03-11T06:26:47.074Z,1.27
2023-03-11T06:29:16.643Z,0.97
2023-03-11T06:31:44.872Z,0.88
2023-03-11T06:34:13.504Z,1.20
2023-03-11T06:36:41.915Z,0.98
2023-03-11T06:39:12.520Z,1.10
2023-03-11T06:41:40.695Z,0.82
2023-03-11T06:44:10.908Z,1.05
2023-03-11T06:46:39.068Z,1.00
2023-03-11T06:49:07.602Z,0.95
2023-03-11T06:51:36.261Z,0.90
2023-03-11T06:54:04.590Z,1.00
2023-03-11T06:56:32.771Z,1.00
2023-03-11T06:59:00.918Z,0.80
2023-03-11T07:01:30.664Z,1.08
2023-03-11T07:03:58.987Z,1.00
2023-03-11T07:06:28.737Z,1.00
2023-03-11T07:08:56.965Z,1.40
2023-03-11T07:11:26.666Z,0.80
2023-03-11T07:13:55.822Z,1.00
2023-03-11T07:16:25.341Z,1.05
2023-03-11T07:18:59.051Z,1.30
2023-03-11T07:21:28.042Z,1.20
2023-03-11T07:23:58.272Z,1.10
2023-03-11T07:26:28.114Z,0.87
2023-03-11T07:28:57.784Z,0.70
2023-03-11T07:31:28.000Z,1.05
2023-03-11T07:33:58.995Z,1.00
2023-03-11T07:36:28.048Z,0.80
2023-03-11T07:38:58.437Z,0.88
2023-03-11T07:41:27.571Z,0.80
2023-03-11T07:43:56.716Z,1.05
2023-03-11T07:46:26.842Z,0.95
2023-03-11T07:48:55.286Z,1.30
2023-03-11T07:51:26.351Z,0.98
2023-03-11T07:56:25.414Z,1.00
2023-03-11T07:58:53.738Z,0.80
2023-03-11T08:01:23.722Z,0.98
2023-03-11T08:03:57.005Z,1.10
2023-03-11T08:06:29.226Z,1.00
2023-03-11T08:08:57.314Z,1.05
2023-03-11T08:11:26.272Z,1.10
2023-03-11T08:13:54.800Z,0.90
2023-03-11T08:16:24.054Z,0.70
2023-03-11T08:18:53.610Z,0.95
2023-03-11T08:21:23.148Z,0.88
2023-03-11T08:23:52.785Z,0.63
2023-03-11T08:26:22.866Z,0.80
2023-03-11T08:28:51.314Z,1.10
2023-03-11T08:31:22.071Z,0.93
2023-03-11T08:33:51.617Z,0.85
2023-03-11T08:36:20.996Z,1.10
2023-03-11T08:38:49.613Z,0.70
2023-03-11T08:41:19.247Z,0.82
2023-03-11T08:43:47.872Z,0.90
2023-03-11T08:46:22.344Z,1.00
2023-03-11T08:48:50.592Z,0.82
2023-03-11T08:51:19.974Z,0.88
2023-03-11T08:53:48.499Z,0.85
2023-03-11T08:56:18.647Z,0.80
2023-03-11T08:58:47.323Z,0.80
2023-03-11T09:01:16.071Z,0.80
2023-03-11T09:03:44.275Z,1.00
2023-03-11T09:06:15.402Z,0.82
2023-03-11T09:08:44.021Z,0.63
2023-03-11T09:11:13.449Z,0.90
2023-03-11T09:13:43.265Z,0.88
2023-03-11T09:16:14.823Z,0.70
2023-03-11T09:18:43.067Z,1.23
2023-03-11T09:21:11.636Z,0.70
2023-03-11T09:23:41.641Z,1.13
2023-03-11T09:26:11.774Z,0.80
2023-03-11T09:28:40.108Z,0.90
2023-03-11T09:31:10.503Z,0.98
2023-03-11T09:33:40.295Z,0.70
2023-03-11T09:36:09.789Z,0.55
2023-03-11T09:38:37.979Z,0.90
2023-03-11T09:41:15.018Z,0.70
2023-03-11T09:43:54.222Z,0.90
2023-03-11T09:46:42.044Z,1.40
2023-03-11T09:49:21.448Z,0.80
2023-03-11T09:51:55.206Z,0.95
2023-03-11T09:54:24.113Z,0.90
2023-03-11T09:56:52.786Z,0.93
2023-03-11T09:59:28.146Z,1.13
2023-03-11T10:01:57.930Z,0.80
2023-03-11T10:04:31.559Z,0.98
2023-03-11T10:07:03.228Z,0.82
2023-03-11T10:09:39.299Z,1.05
2023-03-11T10:12:20.325Z,0.80
2023-03-11T10:15:13.805Z,1.10
2023-03-11T10:17:53.145Z,0.90
2023-03-11T10:20:26.148Z,1.08
2023-03-11T10:23:08.141Z,1.00
2023-03-11T10:25:48.370Z,0.80
2023-03-11T10:28:19.872Z,0.70
2023-03-11T10:30:51.586Z,0.80
2023-03-11T10:33:25.887Z,1.02
2023-03-11T10:35:56.506Z,0.68
2023-03-11T10:38:28.246Z,0.63
2023-03-11T10:40:59.071Z,0.73
2023-03-11T10:43:29.980Z,0.73
2023-03-11T10:45:58.589Z,0.70
2023-03-11T10:48:28.446Z,0.90
2023-03-11T10:51:02.907Z,0.70
2023-03-11T10:53:32.178Z,1.13
2023-03-11T10:56:01.369Z,1.02
2023-03-11T10:58:31.313Z,0.65
2023-03-11T11:01:05.602Z,0.75
2023-03-11T11:03:35.774Z,0.70
2023-03-11T11:06:06.573Z,0.80
2023-03-11T11:08:35.188Z,0.63
2023-03-11T11:11:05.646Z,0.50
2023-03-11T11:13:35.914Z,0.50
2023-03-11T11:16:07.186Z,0.60
2023-03-11T11:18:43.712Z,0.50
2023-03-11T11:21:17.297Z,0.60
2023-03-11T11:23:49.556Z,0.70
2023-03-11T11:26:20.490Z,0.85
2023-03-11T11:29:08.702Z,0.40
2023-03-11T11:31:38.015Z,0.50
2023-03-11T11:34:34.030Z,0.63
2023-03-11T11:37:05.251Z,0.75
2023-03-11T11:39:42.084Z,0.50
2023-03-11T11:42:13.760Z,0.55
2023-03-11T11:44:44.237Z,0.40
2023-03-11T11:47:19.159Z,0.50
2023-03-11T11:49:54.204Z,0.50
2023-03-11T11:52:26.822Z,0.50
2023-03-11T11:54:59.441Z,0.45
2023-03-11T11:57:28.315Z,0.50
2023-03-11T11:59:57.699Z,0.57
2023-03-11T12:02:42.882Z,0.40
2023-03-11T12:05:19.827Z,0.43
2023-03-11T12:08:00.217Z,0.35
2023-03-11T12:10:33.219Z,0.40
2023-03-11T12:13:31.042Z,0.45
2023-03-11T12:16:06.446Z,0.43
2023-03-11T12:18:40.101Z,0.40
2023-03-11T12:21:23.811Z,0.50
2023-03-11T12:24:06.144Z,0.60
2023-03-11T12:26:39.352Z,0.45
2023-03-11T12:29:15.711Z,0.50
2023-03-11T12:31:45.544Z,0.40
2023-03-11T12:34:17.558Z,0.47
2023-03-11T12:36:49.439Z,0.40
2023-03-11T12:39:26.140Z,0.45
2023-03-11T12:42:17.718Z,0.50
2023-03-11T12:44:47.431Z,0.35
2023-03-11T12:47:22.444Z,0.30
2023-03-11T12:49:54.980Z,0.50
2023-03-11T12:52:34.388Z,0.20
2023-03-11T12:55:34.683Z,0.50
2023-03-11T12:58:35.487Z,0.32
2023-03-11T13:01:38.409Z,0.30
2023-03-11T13:04:29.852Z,0.32
2023-03-11T13:07:20.010Z,0.20
2023-03-11T13:10:03.298Z,0.40
2023-03-11T13:12:44.396Z,0.30
2023-03-11T13:18:02.549Z,0.40
2023-03-11T13:20:51.642Z,0.70
2023-03-11T13:23:35.800Z,0.60
2023-03-11T13:26:36.283Z,0.50
2023-03-11T13:29:45.724Z,0.50
2023-03-11T13:32:30.065Z,0.43
2023-03-11T13:35:10.621Z,0.50
2023-03-11T13:37:51.944Z,0.98
2023-03-11T13:40:33.073Z,0.60
2023-03-11T13:45:35.841Z,0.55
2023-03-11T13:50:37.970Z,0.55
2023-03-11T13:53:11.708Z,0.50
2023-03-11T13:55:44.182Z,0.68
2023-03-11T13:58:23.798Z,0.38
2023-03-11T14:00:54.574Z,0.50
2023-03-11T14:03:25.485Z,0.45
2023-03-11T14:05:59.677Z,0.45
2023-03-11T14:08:29.784Z,0.57
2023-03-11T14:10:59.589Z,0.40
2023-03-11T14:13:31.170Z,0.98
2023-03-11T14:16:04.303Z,0.60
2023-03-11T14:18:39.176Z,0.57
2023-03-11T14:21:13.354Z,0.63
2023-03-11T14:23:44.403Z,0.32
2023-03-11T14:28:47.661Z,0.55
2023-03-11T14:31:31.210Z,0.40
2023-03-11T14:34:04.574Z,0.50
2023-03-11T14:36:41.622Z,0.43
2023-03-11T14:39:27.755Z,0.50
2023-03-11T14:42:00.440Z,0.40
2023-03-11T14:44:32.652Z,0.75
2023-03-11T14:47:06.867Z,0.40
2023-03-11T14:49:35.585Z,0.30
2023-03-11T14:52:08.799Z,0.30
2023-03-11T14:54:38.101Z,0.40
2023-03-11T14:57:11.802Z,0.40
2023-03-11T14:59:42.233Z,0.60
2023-03-11T15:02:32.871Z,0.40
2023-03-11T15:05:04.680Z,0.50
2023-03-11T15:07:34.581Z,0.30
2023-03-11T15:10:03.228Z,0.30
2023-03-11T15:12:33.518Z,0.22
2023-03-11T15:15:03.217Z,0.30
2023-03-11T15:17:40.874Z,0.20
2023-03-11T15:20:26.013Z,0.22
2023-03-11T15:23:01.142Z,0.55
2023-03-11T15:25:31.920Z,0.50
2023-03-11T15:28:01.091Z,0.20
2023-03-11T15:30:32.437Z,0.47
2023-03-11T15:33:00.777Z,0.25
2023-03-11T15:35:31.059Z,0.40
2023-03-11T15:38:21.552Z,0.50
2023-03-11T15:40:55.582Z,0.33
2023-03-11T15:43:30.304Z,0.30
2023-03-11T15:46:02.777Z,0.57
2023-03-11T15:48:31.403Z,0.40
2023-03-11T15:51:01.479Z,0.30
2023-03-11T15:53:31.594Z,0.40
2023-03-11T15:56:07.905Z,0.32
2023-03-11T15:58:38.240Z,0.30
2023-03-11T16:01:08.377Z,0.35
2023-03-11T16:03:39.019Z,0.60
2023-03-11T16:06:08.275Z,0.40
2023-03-11T16:08:36.572Z,0.40
2023-03-11T16:11:05.019Z,0.50
2023-03-11T16:13:33.438Z,0.25
2023-03-11T16:16:04.533Z,0.30
2023-03-11T16:18:35.805Z,0.30
2023-03-11T16:23:50.542Z,0.50
2023-03-11T16:26:19.597Z,0.40
2023-03-11T16:28:47.826Z,0.30
2023-03-11T16:31:16.065Z,0.30
2023-03-11T16:33:45.716Z,0.20
2023-03-11T16:36:14.059Z,0.30
2023-03-11T16:38:46.452Z,0.32
2023-03-11T16:41:15.387Z,0.30
2023-03-11T16:43:44.156Z,0.20
2023-03-11T16:46:12.414Z,0.30
2023-03-11T16:48:40.653Z,0.50
2023-03-11T16:51:10.595Z,0.30
2023-03-11T16:53:39.118Z,0.40
2023-03-11T16:56:08.234Z,0.30
2023-03-11T16:58:36.366Z,0.30
2023-03-11T17:01:04.774Z,0.57
2023-03-11T17:03:42.140Z,0.45
2023-03-11T17:06:12.295Z,0.30
2023-03-11T17:08:40.516Z,0.45
2023-03-11T17:11:16.207Z,0.47
2023-03-11T17:13:44.760Z,0.30
2023-03-11T17:16:13.455Z,0.28
2023-03-11T17:18:41.820Z,0.28
2023-03-11T17:21:14.027Z,0.30
2023-03-11T17:23:43.005Z,0.40
2023-03-11T17:26:13.842Z,0.30
2023-03-11T17:28:42.564Z,0.35
2023-03-11T17:31:13.624Z,0.40
2023-03-11T17:33:42.369Z,0.30
2023-03-11T17:36:14.768Z,0.32
2023-03-11T17:38:43.043Z,0.40
2023-03-11T17:41:12.963Z,0.30
2023-03-11T17:43:41.644Z,0.30
2023-03-11T17:46:11.453Z,0.40
2023-03-11T17:48:39.627Z,0.30
2023-03-11T17:51:08.365Z,0.30
2023-03-11T17:53:38.253Z,0.30
2023-03-11T17:56:07.707Z,0.30
2023-03-11T17:58:36.921Z,0.20
2023-03-11T18:01:06.266Z,0.40
2023-03-11T18:03:34.928Z,0.30
2023-03-11T18:06:06.113Z,0.17
2023-03-11T18:08:35.413Z,0.25
2023-03-11T18:11:07.056Z,0.20
2023-03-11T18:13:36.608Z,0.20
2023-03-11T18:16:07.001Z,0.20
2023-03-11T18:18:37.009Z,0.40
2023-03-11T18:21:07.633Z,0.30
2023-03-11T18:23:35.909Z,0.40
2023-03-11T18:26:07.746Z,0.30
2023-03-11T18:28:36.431Z,0.35
2023-03-11T18:31:08.541Z,0.20
2023-03-11T18:33:37.286Z,0.30
2023-03-11T18:36:16.143Z,0.35
2023-03-11T18:38:44.707Z,0.40
2023-03-11T18:41:15.161Z,0.28
2023-03-11T18:43:43.487Z,0.40
2023-03-11T18:46:14.240Z,0.30
2023-03-11T18:48:42.942Z,0.20
2023-03-11T18:51:12.662Z,0.32
2023-03-11T18:53:42.870Z,0.50
2023-03-11T18:56:15.139Z,0.20
2023-03-11T18:58:43.513Z,0.30
2023-03-11T19:01:14.360Z,0.30
2023-03-11T19:03:43.188Z,0.30
2023-03-11T19:06:12.576Z,0.20
2023-03-11T19:08:41.307Z,0.10
2023-03-11T19:11:10.246Z,0.50
2023-03-11T19:13:47.032Z,0.22
2023-03-11T19:16:17.178Z,0.20
2023-03-11T19:18:53.806Z,0.30
2023-03-11T19:21:22.642Z,0.20
2023-03-11T19:23:52.853Z,0.30
2023-03-11T19:26:25.740Z,0.20
2023-03-11T19:29:00.432Z,0.30
2023-03-11T19:31:28.564Z,0.13
2023-03-11T19:33:56.847Z,0.20
2023-03-11T19:36:25.004Z,0.13
2023-03-11T19:38:53.230Z,0.20
2023-03-11T19:41:23.203Z,0.30
2023-03-11T19:43:52.321Z,0.20
2023-03-11T19:46:23.379Z,0.30
2023-03-11T19:51:20.514Z,0.10
2023-03-11T19:53:48.806Z,0.20
2023-03-11T19:56:17.144Z,0.30
2023-03-11T19:58:45.410Z,0.20
2023-03-11T20:01:18.433Z,0.22
2023-03-11T20:03:49.182Z,0.15
2023-03-11T20:06:20.580Z,0.30
2023-03-11T20:08:48.928Z,0.20
2023-03-11T20:11:18.035Z,0.30
2023-03-11T20:13:46.327Z,0.30
2023-03-11T20:16:18.764Z,0.20
2023-03-11T20:18:50.419Z,0.20
2023-03-11T20:21:18.875Z,0.30
2023-03-11T20:23:49.087Z,0.20
2023-03-11T20:26:19.636Z,0.85
2023-03-11T20:28:48.297Z,0.25
2023-03-11T20:31:19.750Z,0.28
2023-03-11T20:33:50.759Z,0.20
2023-03-11T20:36:21.228Z,0.32
2023-03-11T20:38:50.049Z,0.30
2023-03-11T20:41:19.249Z,0.40
2023-03-11T20:43:47.623Z,0.30
2023-03-11T20:46:16.214Z,0.40
2023-03-11T20:48:44.934Z,0.20
2023-03-11T20:51:19.408Z,0.35
2023-03-11T20:53:48.374Z,0.38
2023-03-11T20:56:19.906Z,0.30
2023-03-11T20:58:50.853Z,0.20
2023-03-11T21:03:49.362Z,0.25
2023-03-11T21:06:21.708Z,0.30
2023-03-11T21:08:51.085Z,0.40
2023-03-11T21:11:19.505Z,0.20
2023-03-11T21:13:48.189Z,0.20
2023-03-11T21:16:16.927Z,0.40
2023-03-11T21:18:49.207Z,0.40
2023-03-11T21:21:19.946Z,0.30
2023-03-11T21:23:48.957Z,0.47
2023-03-11T21:26:18.430Z,0.40
2023-03-11T21:28:47.692Z,0.38
2023-03-11T21:31:18.411Z,0.20
2023-03-11T21:33:47.326Z,0.38
2023-03-11T21:36:17.442Z,0.30
2023-03-11T21:38:47.949Z,0.40
2023-03-11T21:41:17.874Z,0.30
2023-03-11T21:43:47.229Z,0.30
2023-03-11T21:46:17.931Z,0.50
2023-03-11T21:48:47.019Z,0.30
2023-03-11T21:51:15.627Z,0.30
2023-03-11T21:53:43.847Z,0.20
2023-03-11T21:56:14.264Z,0.40
2023-03-11T21:58:43.201Z,0.32
2023-03-11T22:01:12.195Z,0.43
2023-03-11T22:03:41.000Z,0.52
2023-03-11T22:06:13.298Z,0.50
2023-03-11T22:08:42.446Z,0.30
2023-03-11T22:11:17.674Z,0.40
2023-03-11T22:13:46.922Z,0.40
2023-03-11T22:16:15.653Z,0.40
2023-03-11T22:18:44.199Z,0.45
2023-03-11T22:21:15.191Z,0.40
2023-03-11T22:26:12.823Z,0.80
2023-03-11T22:28:41.131Z,0.60
2023-03-11T22:31:10.875Z,0.38
2023-03-11T22:33:39.260Z,0.40
2023-03-11T22:36:09.333Z,0.30
2023-03-11T22:38:40.622Z,0.30
2023-03-11T22:41:10.125Z,0.47
2023-03-11T22:43:40.356Z,0.40
2023-03-11T22:46:09.172Z,0.30
2023-03-11T22:48:37.590Z,0.40
2023-03-11T22:51:06.734Z,0.50
2023-03-11T22:53:34.961Z,0.40
2023-03-11T22:56:09.166Z,0.50
2023-03-11T22:58:37.359Z,0.40
2023-03-11T23:01:08.033Z,0.50
2023-03-11T23:03:37.285Z,0.40
2023-03-11T23:06:07.889Z,0.52
2023-03-11T23:08:36.459Z,0.35
2023-03-11T23:11:06.014Z,0.50
2023-03-11T23:13:35.860Z,0.50
2023-03-11T23:16:10.998Z,0.50
2023-03-11T23:18:39.795Z,0.60
2023-03-11T23:21:16.753Z,0.70
2023-03-11T23:23:45.312Z,0.40
2023-03-11T23:26:14.333Z,0.50
2023-03-11T23:28:43.355Z,0.47
2023-03-11T23:31:14.890Z,0.52
2023-03-11T23:33:43.207Z,0.60
2023-03-11T23:36:14.070Z,0.60
2023-03-11T23:38:42.205Z,0.50
2023-03-11T23:41:12.413Z,0.70
2023-03-11T23:43:41.294Z,0.63
2023-03-11T23:46:10.308Z,0.68
2023-03-11T23:48:40.929Z,0.47
2023-03-11T23:51:09.780Z,0.70
2023-03-11T23:53:59.084Z,0.80
2023-03-11T23:56:27.290Z,0.52
2023-03-11T23:58:55.376Z,0.77
